Prior Lake, MN (55372)

11:26 PM CDT on April 25, 2017 (GMT -0500)
Fairlawn Shores | | Change Station

Elev 928 ft 44.73 °N, 93.41 °W | Updated 29 seconds ago

Rain
Rain
52.2 °F
Feels Like 52.2 °F
N
0.0
Wind Variable Wind from SE

Today
High -- | Low -- °F
--% Chance of Precip.
Yesterday
High -- | Low -- °F
Precip. -- in
Pressure 29.53 in
Visibility 6.0 miles
Clouds Overcast 600 ft
Dew Point 51 °F
Humidity 97%
Rainfall 1.44 in
Snow Depth Not available.
6:12 AM 8:11 PM
Waning Crescent, 0% visible
METAR KFCM 260353Z 01012G16KT 6SM -RA BR OVC006 11/09 A2952 RMK AO2 SLP999 P0002 T01060094
Pressure 29.53 in
Visibility 6.0 miles
Clouds Overcast 600 ft
Dew Point 51 °F
Humidity 97%
Rainfall 1.44 in
Snow Depth Not available.
6:12 AM 8:11 PM
Waning Crescent, 0% visible
METAR KFCM 260353Z 01012G16KT 6SM -RA BR OVC006 11/09 A2952 RMK AO2 SLP999 P0002 T01060094

Get Severe Weather Alerts

Thanks for signing up!

Be on the lookout for a verification email in your inbox.

You'll start receiving the daily forecast at 8 AM.

×

10-Day Weather Forecast

Almanac

Astronomy

Apr. 25, 2017 Rise Set
Actual Time
Civil Twilight
Nautical Twilight
Astronomical Twilight
Moon
Length of Visible Light
Length of Day
Tomorrow will be .
, % of the Moon is Illuminated

Today's Extremes

State Highs State Lows

Community

WunderPhotos

WunderBlog® & News

Nearby

Air Quality

  Air Quality AQ Index Pollutant
Not available.

Snow Depth

Station Depth Elevation

Earthquake Activity

City Distance Mag. Time & Date
Minimum magnitude displayed is 2.5.

Coastal Water Temperatures

Place Temperature

Stations

Nearby Weather Stations

Station Location Temp. Windchill Dew Point Humidity Wind Precip. Elev Updated Type
                   

Watches & Warnings

There are currently no watches in effect.